createdAt,value
2019-05-18T00:01:46.952Z,19.30
2019-05-18T00:04:16.202Z,19.20
2019-05-18T00:07:04.420Z,19.20
2019-05-18T00:09:52.440Z,19.10
2019-05-18T00:12:21.384Z,19.10
2019-05-18T00:14:50.067Z,19.10
2019-05-18T00:17:38.044Z,19.00
2019-05-18T00:20:26.102Z,19.10
2019-05-18T00:22:54.738Z,19.10
2019-05-18T00:25:23.530Z,19.00
2019-05-18T00:27:52.203Z,19.00
2019-05-18T00:30:21.136Z,18.90
2019-05-18T00:32:50.404Z,19.00
2019-05-18T00:35:38.714Z,19.00
2019-05-18T00:38:07.393Z,18.80
2019-05-18T00:40:36.130Z,18.90
2019-05-18T00:43:04.800Z,18.90
2019-05-18T00:45:33.478Z,18.90
2019-05-18T00:48:02.113Z,18.80
2019-05-18T00:50:30.795Z,18.80
2019-05-18T00:53:19.023Z,18.80
2019-05-18T00:56:07.068Z,18.80
2019-05-18T00:58:55.591Z,18.70
2019-05-18T01:01:43.861Z,18.80
2019-05-18T01:04:32.097Z,18.70
2019-05-18T01:07:00.752Z,18.70
2019-05-18T01:10:02.281Z,18.70
2019-05-18T01:12:19.180Z,18.70
2019-05-18T01:15:07.227Z,18.70
2019-05-18T01:17:57.830Z,18.60
2019-05-18T01:20:45.599Z,18.60
2019-05-18T01:23:26.416Z,18.60
2019-05-18T01:26:07.776Z,18.50
2019-05-18T01:28:48.400Z,18.50
2019-05-18T01:31:29.537Z,18.50
2019-05-18T01:33:58.808Z,18.50
2019-05-18T01:36:27.987Z,18.40
2019-05-18T01:39:16.014Z,18.50
2019-05-18T01:42:04.059Z,18.40
2019-05-18T01:44:52.066Z,18.40
2019-05-18T01:47:40.294Z,18.30
2019-05-18T01:50:08.992Z,18.30
2019-05-18T01:52:58.597Z,18.30
2019-05-18T01:55:46.722Z,18.30
2019-05-18T01:58:35.016Z,18.30
2019-05-18T02:01:03.696Z,18.30
2019-05-18T02:03:51.682Z,18.30
2019-05-18T02:06:39.644Z,18.30
2019-05-18T02:09:27.628Z,18.30
2019-05-18T02:12:15.579Z,18.30
2019-05-18T02:15:03.578Z,18.20
2019-05-18T02:17:32.251Z,18.20
2019-05-18T02:20:01.164Z,18.20
2019-05-18T02:22:49.527Z,18.10
2019-05-18T02:25:30.371Z,18.20
2019-05-18T02:28:10.858Z,18.20
2019-05-18T02:30:52.103Z,18.20
2019-05-18T02:33:32.807Z,18.10
2019-05-18T02:36:18.300Z,18.20
2019-05-18T02:39:02.431Z,18.10
2019-05-18T02:41:43.637Z,18.20
2019-05-18T02:44:24.626Z,18.20
2019-05-18T02:47:05.130Z,18.20
2019-05-18T02:49:46.044Z,18.20
2019-05-18T02:52:27.260Z,18.10
2019-05-18T02:55:08.163Z,18.10
2019-05-18T02:57:49.163Z,18.20
2019-05-18T03:00:30.171Z,18.10
2019-05-18T03:03:11.732Z,18.20
2019-05-18T03:05:52.446Z,18.20
2019-05-18T03:08:33.377Z,18.10
2019-05-18T03:11:14.524Z,18.10
2019-05-18T03:13:55.575Z,18.10
2019-05-18T03:16:36.625Z,18.10
2019-05-18T03:19:17.238Z,18.10
2019-05-18T03:22:00.853Z,18.10
2019-05-18T03:24:41.502Z,18.10
2019-05-18T03:27:22.173Z,18.10
2019-05-18T03:30:02.902Z,18.10
2019-05-18T03:32:44.140Z,18.10
2019-05-18T03:35:25.621Z,18.10
2019-05-18T03:38:06.617Z,18.10
2019-05-18T03:40:35.713Z,18.10
2019-05-18T03:43:04.473Z,18.10
2019-05-18T03:45:52.941Z,18.10
2019-05-18T03:48:22.357Z,18.10
2019-05-18T03:51:10.351Z,18.10
2019-05-18T03:53:58.645Z,18.10
2019-05-18T03:56:46.625Z,18.10
2019-05-18T03:59:15.311Z,18.20
2019-05-18T04:02:03.496Z,18.20
2019-05-18T04:04:32.153Z,18.20
2019-05-18T04:07:20.444Z,18.20
2019-05-18T04:09:49.639Z,18.20
2019-05-18T04:12:18.811Z,18.20
2019-05-18T04:15:06.865Z,18.20
2019-05-18T04:17:35.797Z,18.20
2019-05-18T04:20:04.704Z,18.20
2019-05-18T04:22:53.194Z,18.30
2019-05-18T04:25:34.222Z,18.30
2019-05-18T04:28:14.767Z,18.30
2019-05-18T04:30:43.492Z,18.30
2019-05-18T04:33:12.220Z,18.30
2019-05-18T04:36:00.240Z,18.40
2019-05-18T04:38:28.931Z,18.40
2019-05-18T04:41:16.913Z,18.40
2019-05-18T04:43:45.571Z,18.50
2019-05-18T04:46:14.310Z,18.50
2019-05-18T04:48:43.089Z,18.60
2019-05-18T04:51:11.738Z,18.60
2019-05-18T04:53:40.988Z,18.60
2019-05-18T04:56:10.801Z,18.60
2019-05-18T04:58:40.288Z,18.60
2019-05-18T05:01:09.284Z,18.60
2019-05-18T05:03:38.484Z,18.70
2019-05-18T05:06:07.139Z,18.60
2019-05-18T05:08:36.073Z,18.70
2019-05-18T05:11:04.712Z,18.70
2019-05-18T05:13:33.912Z,18.80
2019-05-18T05:16:02.658Z,18.80
2019-05-18T05:18:31.960Z,18.80
2019-05-18T05:21:01.132Z,18.90
2019-05-18T05:23:30.652Z,18.90
2019-05-18T05:25:59.860Z,18.90
2019-05-18T05:28:29.055Z,19.00
2019-05-18T05:30:57.981Z,18.90
2019-05-18T05:33:27.020Z,19.00
2019-05-18T05:35:56.015Z,19.00
2019-05-18T05:38:44.764Z,18.90
2019-05-18T05:41:16.733Z,18.90
2019-05-18T05:44:04.236Z,18.90
2019-05-18T05:46:33.279Z,18.90
2019-05-18T05:49:02.551Z,19.00
2019-05-18T05:51:31.656Z,18.90
2019-05-18T05:54:19.623Z,18.90
2019-05-18T05:57:07.940Z,19.00
2019-05-18T05:59:36.625Z,19.00
2019-05-18T06:02:24.980Z,19.00
2019-05-18T06:05:13.271Z,19.00
2019-05-18T06:07:42.200Z,19.00
2019-05-18T06:10:11.180Z,19.00
2019-05-18T06:13:00.211Z,19.10
2019-05-18T06:15:29.155Z,19.10
2019-05-18T06:18:17.714Z,19.10
2019-05-18T06:20:51.553Z,19.20
2019-05-18T06:23:36.809Z,19.20
2019-05-18T06:26:17.976Z,19.30
2019-05-18T06:28:58.915Z,19.30
2019-05-18T06:31:40.389Z,19.40
2019-05-18T06:34:21.384Z,19.50
2019-05-18T06:36:50.604Z,19.50
2019-05-18T06:39:19.283Z,19.50
2019-05-18T06:42:10.653Z,19.60
2019-05-18T06:44:57.768Z,19.60
2019-05-18T06:47:48.386Z,19.60
2019-05-18T06:50:35.456Z,19.60
2019-05-18T06:53:04.981Z,19.70
2019-05-18T06:56:00.995Z,19.70
2019-05-18T07:01:44.765Z,19.90
2019-05-18T07:04:32.827Z,19.90
2019-05-18T07:07:20.811Z,19.90
2019-05-18T07:10:09.617Z,20.00
2019-05-18T07:12:38.394Z,20.10
2019-05-18T07:15:26.854Z,20.20
2019-05-18T07:18:14.848Z,20.10
2019-05-18T07:21:02.863Z,20.30
2019-05-18T07:23:51.137Z,20.40
2019-05-18T07:26:32.475Z,20.60
2019-05-18T07:29:13.937Z,20.80
2019-05-18T07:31:55.898Z,20.90
2019-05-18T07:34:37.224Z,21.00
2019-05-18T07:37:18.715Z,21.20
2019-05-18T07:39:59.526Z,21.30
2019-05-18T07:42:40.019Z,21.40
2019-05-18T07:45:21.509Z,21.60
2019-05-18T07:48:03.119Z,21.70
2019-05-18T07:50:44.671Z,21.80
2019-05-18T07:53:25.453Z,21.90
2019-05-18T07:56:06.124Z,22.00
2019-05-18T07:58:35.096Z,22.20
2019-05-18T08:01:24.756Z,22.60
2019-05-18T08:03:53.525Z,23.00
2019-05-18T08:06:22.467Z,23.30
2019-05-18T08:09:10.552Z,23.30
2019-05-18T08:11:39.540Z,23.30
2019-05-18T08:14:08.356Z,23.30
2019-05-18T08:16:37.018Z,23.40
2019-05-18T08:19:25.019Z,23.50
2019-05-18T08:22:13.035Z,23.60
2019-05-18T08:24:41.734Z,23.80
2019-05-18T08:27:10.765Z,23.90
2019-05-18T08:29:58.783Z,24.10
2019-05-18T08:32:46.784Z,24.20
2019-05-18T08:35:15.760Z,24.50
2019-05-18T08:38:05.406Z,24.60
2019-05-18T08:41:17.240Z,24.80
2019-05-18T08:43:46.233Z,25.00
2019-05-18T08:46:34.531Z,25.10
2019-05-18T08:49:22.875Z,25.30
2019-05-18T08:52:06.181Z,25.50
2019-05-18T08:54:48.324Z,25.70
2019-05-18T08:57:50.549Z,25.90
2019-05-18T09:00:28.128Z,26.00
2019-05-18T09:03:16.357Z,26.20
2019-05-18T09:05:45.627Z,26.30
2019-05-18T09:08:33.592Z,26.60
2019-05-18T09:11:02.792Z,26.80
2019-05-18T09:13:51.294Z,27.00
2019-05-18T09:16:20.265Z,27.20
2019-05-18T09:18:49.303Z,27.20
2019-05-18T09:21:46.295Z,27.10
2019-05-18T09:24:36.530Z,27.10
2019-05-18T09:27:05.304Z,27.30
2019-05-18T09:29:56.071Z,27.50
2019-05-18T09:32:27.268Z,27.60
2019-05-18T09:35:15.352Z,27.70
2019-05-18T09:38:03.626Z,27.80
2019-05-18T09:40:52.129Z,27.80
2019-05-18T09:43:23.756Z,27.70
2019-05-18T09:46:12.267Z,27.90
2019-05-18T09:49:00.553Z,28.20
2019-05-18T09:51:48.821Z,28.40
2019-05-18T09:54:18.108Z,28.50
2019-05-18T09:56:47.073Z,28.60
2019-05-18T09:59:16.040Z,28.70
2019-05-18T10:02:04.037Z,28.90
2019-05-18T10:04:52.067Z,28.90
2019-05-18T10:07:40.131Z,29.00
2019-05-18T10:10:09.120Z,29.10
2019-05-18T10:12:57.427Z,29.40
2019-05-18T10:15:26.138Z,29.60
2019-05-18T10:18:14.494Z,29.70
2019-05-18T10:20:43.440Z,29.80
2019-05-18T10:23:13.952Z,29.80
2019-05-18T10:25:42.868Z,29.70
2019-05-18T10:28:31.321Z,29.70
2019-05-18T10:31:19.331Z,29.70
2019-05-18T10:34:07.405Z,29.70
2019-05-18T10:36:36.381Z,29.80
2019-05-18T10:39:24.452Z,30.00
2019-05-18T10:42:12.552Z,30.10
2019-05-18T10:45:01.181Z,30.30
2019-05-18T10:47:51.317Z,30.60
2019-05-18T10:50:39.288Z,30.70
2019-05-18T10:53:29.048Z,30.60
2019-05-18T10:55:58.080Z,30.80
2019-05-18T10:58:46.308Z,30.50
2019-05-18T11:04:30.920Z,30.20
2019-05-18T11:07:20.989Z,30.40
2019-05-18T11:10:10.950Z,29.90
2019-05-18T11:12:59.232Z,29.90
2019-05-18T11:15:47.603Z,29.80
2019-05-18T11:18:35.949Z,29.80
2019-05-18T11:21:38.458Z,30.00
2019-05-18T11:24:14.007Z,30.20
2019-05-18T11:26:54.834Z,30.40
2019-05-18T11:29:35.622Z,30.50
2019-05-18T11:32:16.614Z,30.50
2019-05-18T11:34:45.578Z,30.20
2019-05-18T11:37:14.801Z,30.40
2019-05-18T11:39:43.496Z,30.50
2019-05-18T11:42:12.150Z,30.70
2019-05-18T11:45:00.223Z,30.80
2019-05-18T11:47:28.881Z,30.10
2019-05-18T11:50:17.105Z,30.00
2019-05-18T11:52:46.254Z,29.70
2019-05-18T11:55:15.219Z,30.20
2019-05-18T11:57:44.167Z,30.20
2019-05-18T12:00:32.150Z,30.10
2019-05-18T12:03:20.195Z,30.30
2019-05-18T12:05:48.996Z,30.70
2019-05-18T12:08:37.233Z,30.90
2019-05-18T12:11:06.428Z,30.90
2019-05-18T12:13:54.668Z,30.90
2019-05-18T12:16:23.321Z,31.10
2019-05-18T12:18:51.963Z,31.10
2019-05-18T12:21:39.944Z,31.20
2019-05-18T12:24:15.453Z,31.30
2019-05-18T12:26:52.614Z,31.40
2019-05-18T12:29:33.801Z,30.80
2019-05-18T12:32:02.484Z,30.90
2019-05-18T12:34:50.772Z,30.70
2019-05-18T12:37:23.499Z,30.70
2019-05-18T12:39:53.420Z,30.90
2019-05-18T12:42:41.423Z,31.10
2019-05-18T12:45:10.368Z,30.90
2019-05-18T12:47:39.696Z,30.80
2019-05-18T12:50:29.397Z,30.80
2019-05-18T12:52:58.941Z,30.80
2019-05-18T12:55:47.344Z,30.80
2019-05-18T12:58:37.631Z,30.90
2019-05-18T13:01:06.443Z,30.80
2019-05-18T13:03:55.039Z,30.70
2019-05-18T13:06:23.998Z,30.90
2019-05-18T13:08:53.026Z,30.90
2019-05-18T13:11:41.033Z,30.60
2019-05-18T13:14:09.720Z,30.60
2019-05-18T13:16:38.647Z,30.70
2019-05-18T13:19:07.356Z,30.80
2019-05-18T13:21:36.027Z,31.00
2019-05-18T13:24:04.658Z,31.00
2019-05-18T13:26:33.365Z,31.20
2019-05-18T13:29:02.148Z,31.40
2019-05-18T13:31:30.791Z,31.50
2019-05-18T13:33:59.518Z,31.60
2019-05-18T13:36:28.787Z,31.70
2019-05-18T13:38:57.625Z,31.90
2019-05-18T13:41:45.638Z,31.80
2019-05-18T13:44:14.578Z,31.60
2019-05-18T13:47:03.106Z,31.70
2019-05-18T13:49:32.044Z,31.90
2019-05-18T13:52:20.330Z,31.90
2019-05-18T13:55:02.801Z,31.90
2019-05-18T13:57:20.501Z,31.90
2019-05-18T13:59:49.476Z,31.90
2019-05-18T14:02:18.489Z,31.90
2019-05-18T14:04:47.438Z,31.70
2019-05-18T14:07:16.339Z,31.70
2019-05-18T14:09:45.061Z,31.60
2019-05-18T14:12:33.541Z,31.40
2019-05-18T14:15:14.876Z,31.40
2019-05-18T14:17:43.871Z,31.20
2019-05-18T14:20:12.684Z,31.00
2019-05-18T14:23:00.812Z,30.80
2019-05-18T14:25:29.596Z,30.60
2019-05-18T14:27:58.654Z,30.50
2019-05-18T14:30:27.327Z,30.60
2019-05-18T14:32:55.988Z,30.80
2019-05-18T14:35:24.702Z,31.00
2019-05-18T14:38:12.706Z,31.00
2019-05-18T14:40:41.748Z,31.10
2019-05-18T14:43:10.435Z,31.20
2019-05-18T14:45:39.169Z,31.30
2019-05-18T14:48:07.865Z,31.30
2019-05-18T14:50:41.089Z,31.10
2019-05-18T14:53:09.765Z,30.90
2019-05-18T14:55:38.668Z,30.70
2019-05-18T14:58:26.668Z,30.50
2019-05-18T15:00:55.357Z,30.50
2019-05-18T15:03:24.062Z,30.60
2019-05-18T15:05:52.790Z,30.60
2019-05-18T15:08:21.484Z,30.60
2019-05-18T15:10:50.782Z,30.60
2019-05-18T15:13:19.532Z,30.60
2019-05-18T15:16:07.832Z,30.50
2019-05-18T15:18:36.746Z,30.50
2019-05-18T15:21:25.080Z,30.50
2019-05-18T15:23:53.759Z,30.40
2019-05-18T15:26:22.988Z,30.40
2019-05-18T15:28:55.031Z,30.30
2019-05-18T15:31:24.265Z,30.30
2019-05-18T15:33:53.479Z,30.20
2019-05-18T15:36:25.512Z,30.20
2019-05-18T15:39:27.603Z,30.20
2019-05-18T15:41:53.843Z,30.10
2019-05-18T15:44:36.101Z,30.20
2019-05-18T15:46:53.167Z,30.10
2019-05-18T15:49:22.348Z,30.10
2019-05-18T15:51:51.142Z,30.00
2019-05-18T15:54:19.788Z,29.90
2019-05-18T15:57:13.535Z,29.70
2019-05-18T15:59:42.596Z,29.70
2019-05-18T16:02:11.553Z,29.60
2019-05-18T16:04:40.540Z,29.60
2019-05-18T16:07:09.716Z,29.50
2019-05-18T16:09:38.932Z,29.50
2019-05-18T16:12:13.749Z,29.40
2019-05-18T16:14:42.748Z,29.30
2019-05-18T16:17:11.998Z,29.30
2019-05-18T16:20:00.296Z,29.30
2019-05-18T16:22:29.215Z,29.30
2019-05-18T16:24:58.236Z,29.20
2019-05-18T16:27:39.609Z,29.20
2019-05-18T16:30:13.069Z,29.20
2019-05-18T16:32:42.260Z,29.10
2019-05-18T16:35:17.516Z,29.10
2019-05-18T16:38:08.640Z,29.10
2019-05-18T16:40:37.827Z,29.10
2019-05-18T16:43:06.739Z,29.00
2019-05-18T16:45:35.459Z,28.90
2019-05-18T16:53:20.383Z,28.90
2019-05-18T16:56:08.683Z,28.80
2019-05-18T16:58:37.738Z,28.80
2019-05-18T17:01:06.761Z,28.70
2019-05-18T17:03:35.987Z,28.70
2019-05-18T17:06:05.223Z,28.60
2019-05-18T17:08:34.180Z,28.60
2019-05-18T17:11:03.140Z,28.50
2019-05-18T17:13:51.450Z,28.60
2019-05-18T17:16:20.477Z,28.50
2019-05-18T17:18:49.152Z,28.50
2019-05-18T17:21:17.841Z,28.40
2019-05-18T17:23:46.630Z,28.40
2019-05-18T17:26:15.630Z,28.40
2019-05-18T17:28:44.567Z,28.30
2019-05-18T17:31:32.841Z,28.30
2019-05-18T17:34:02.078Z,28.30
2019-05-18T17:36:52.497Z,28.30
2019-05-18T17:39:20.776Z,28.30
2019-05-18T17:42:09.318Z,28.20
2019-05-18T17:44:38.530Z,28.20
2019-05-18T17:47:07.524Z,28.20
2019-05-18T17:49:36.259Z,28.10
2019-05-18T17:52:04.928Z,28.10
2019-05-18T17:57:40.897Z,28.10
2019-05-18T18:00:10.001Z,28.00
2019-05-18T18:02:38.779Z,28.00
2019-05-18T18:05:07.719Z,28.00
2019-05-18T18:07:36.698Z,27.90
2019-05-18T18:10:05.765Z,27.80
2019-05-18T18:12:53.855Z,27.80
2019-05-18T18:15:22.915Z,27.80
2019-05-18T18:17:51.932Z,27.80
2019-05-18T18:20:40.217Z,27.70
2019-05-18T18:23:28.290Z,27.70
2019-05-18T18:25:57.300Z,27.70
2019-05-18T18:28:26.673Z,27.60
2019-05-18T18:30:55.634Z,27.50
2019-05-18T18:33:24.674Z,27.50
2019-05-18T18:35:53.904Z,27.40
2019-05-18T18:38:42.047Z,27.40
2019-05-18T18:41:11.016Z,27.40
2019-05-18T18:43:40.407Z,27.40
2019-05-18T18:46:09.411Z,27.30
2019-05-18T18:48:38.748Z,27.30
2019-05-18T18:51:07.672Z,27.20
2019-05-18T18:53:37.136Z,27.20
2019-05-18T18:56:05.911Z,27.20
2019-05-18T18:58:34.909Z,27.10
2019-05-18T19:01:04.116Z,27.10
2019-05-18T19:03:32.803Z,27.10
2019-05-18T19:06:21.128Z,27.00
2019-05-18T19:09:09.439Z,27.00
2019-05-18T19:11:38.623Z,26.90
2019-05-18T19:14:27.127Z,26.90
2019-05-18T19:16:56.339Z,26.90
2019-05-18T19:19:25.233Z,26.90
2019-05-18T19:21:54.528Z,26.80
2019-05-18T19:24:23.236Z,26.80
2019-05-18T19:26:52.794Z,26.80
2019-05-18T19:29:22.360Z,26.70
2019-05-18T19:31:51.043Z,26.70
2019-05-18T19:34:39.361Z,26.70
2019-05-18T19:37:09.986Z,26.70
2019-05-18T19:39:39.059Z,26.60
2019-05-18T19:42:08.249Z,26.60
2019-05-18T19:44:37.897Z,26.60
2019-05-18T19:47:07.021Z,26.50
2019-05-18T19:49:36.127Z,26.50
2019-05-18T19:52:05.619Z,26.50
2019-05-18T19:54:34.510Z,26.40
2019-05-18T19:57:23.021Z,26.40
2019-05-18T20:00:11.344Z,26.40
2019-05-18T20:02:40.460Z,26.40
2019-05-18T20:05:09.742Z,26.40
2019-05-18T20:07:38.712Z,26.40
2019-05-18T20:10:09.194Z,26.30
2019-05-18T20:12:57.401Z,26.30
2019-05-18T20:15:26.524Z,26.30
2019-05-18T20:17:55.920Z,26.30
2019-05-18T20:20:25.103Z,26.20
2019-05-18T20:22:54.527Z,26.20
2019-05-18T20:25:24.211Z,26.20
2019-05-18T20:27:53.270Z,26.20
2019-05-18T20:30:34.543Z,26.20
2019-05-18T20:33:03.300Z,26.20
2019-05-18T20:35:32.317Z,26.20
2019-05-18T20:38:01.436Z,26.20
2019-05-18T20:40:31.095Z,26.10
2019-05-18T20:42:59.887Z,26.10
2019-05-18T20:45:29.250Z,26.10
2019-05-18T20:47:58.344Z,26.10
2019-05-18T20:50:27.449Z,26.00
2019-05-18T20:53:15.709Z,26.00
2019-05-18T20:56:03.702Z,26.00
2019-05-18T20:58:51.812Z,26.00
2019-05-18T21:01:20.536Z,26.00
2019-05-18T21:03:49.509Z,25.90
2019-05-18T21:06:18.220Z,25.90
2019-05-18T21:08:46.919Z,25.90
2019-05-18T21:11:15.614Z,25.90
2019-05-18T21:13:44.642Z,25.90
2019-05-18T21:16:13.738Z,25.90
2019-05-18T21:18:42.573Z,25.90
2019-05-18T21:21:30.982Z,25.90
2019-05-18T21:23:59.723Z,25.90
2019-05-18T21:26:28.515Z,25.80
2019-05-18T21:29:00.751Z,25.80
2019-05-18T21:31:27.671Z,25.80
2019-05-18T21:33:56.561Z,25.80
2019-05-18T21:36:25.638Z,25.70
2019-05-18T21:38:54.537Z,25.70
2019-05-18T21:41:23.897Z,25.70
2019-05-18T21:43:52.873Z,25.70
2019-05-18T21:46:21.880Z,25.70
2019-05-18T21:48:51.644Z,25.70
2019-05-18T21:51:21.098Z,25.70
2019-05-18T21:53:50.489Z,25.70
2019-05-18T21:56:19.271Z,25.60
2019-05-18T21:58:48.069Z,25.60
2019-05-18T22:01:16.868Z,25.60
2019-05-18T22:04:04.888Z,25.60
2019-05-18T22:06:36.885Z,25.60
2019-05-18T22:09:06.328Z,25.60
2019-05-18T22:11:35.187Z,25.50
2019-05-18T22:14:04.592Z,25.50
2019-05-18T22:16:33.324Z,25.50
2019-05-18T22:19:02.388Z,25.50
2019-05-18T22:21:50.469Z,25.40
2019-05-18T22:24:19.164Z,25.40
2019-05-18T22:26:47.836Z,25.40
2019-05-18T22:29:16.500Z,25.40
2019-05-18T22:31:57.065Z,25.40
2019-05-18T22:34:38.385Z,25.40
2019-05-18T22:37:19.664Z,25.40
2019-05-18T22:39:48.372Z,25.40
2019-05-18T22:42:17.571Z,25.40
2019-05-18T22:44:46.508Z,25.30
2019-05-18T22:47:16.040Z,25.40
2019-05-18T22:49:44.772Z,25.40
2019-05-18T22:52:14.110Z,25.40
2019-05-18T22:54:43.164Z,25.30
2019-05-18T22:57:12.022Z,25.30
2019-05-18T22:59:40.810Z,25.30
2019-05-18T23:08:04.176Z,25.40
2019-05-18T23:10:32.897Z,25.30
2019-05-18T23:13:02.270Z,25.20
2019-05-18T23:15:31.269Z,25.20
2019-05-18T23:18:19.316Z,25.10
2019-05-18T23:20:48.636Z,25.10
2019-05-18T23:23:17.356Z,25.20
2019-05-18T23:25:46.119Z,25.10
2019-05-18T23:28:15.085Z,25.10
2019-05-18T23:30:43.818Z,25.10
2019-05-18T23:33:31.799Z,25.10
2019-05-18T23:36:00.806Z,25.10
2019-05-18T23:38:29.915Z,25.10
2019-05-18T23:40:59.325Z,25.00
2019-05-18T23:43:28.449Z,25.00
2019-05-18T23:45:57.363Z,25.00
2019-05-18T23:48:26.453Z,25.00
2019-05-18T23:51:14.742Z,24.90
2019-05-18T23:53:43.916Z,25.00
2019-05-18T23:56:12.813Z,25.00
2019-05-18T23:58:42.031Z,25.00
